createdAt,value
2023-05-05T00:00:25.965Z,9.43
2023-05-05T00:03:30.472Z,9.45
2023-05-05T00:06:33.249Z,9.39
2023-05-05T00:09:36.029Z,9.45
2023-05-05T00:12:38.652Z,9.33
2023-05-05T00:15:46.202Z,9.27
2023-05-05T00:18:48.928Z,9.37
2023-05-05T00:21:51.696Z,9.26
2023-05-05T00:24:54.312Z,9.04
2023-05-05T00:27:57.042Z,8.85
2023-05-05T00:31:00.390Z,8.79
2023-05-05T00:34:03.803Z,8.73
2023-05-05T00:37:06.726Z,8.67
2023-05-05T00:40:10.454Z,8.65
2023-05-05T00:43:13.304Z,8.70
2023-05-05T00:46:24.849Z,8.60
2023-05-05T00:49:27.810Z,8.46
2023-05-05T00:52:30.871Z,8.40
2023-05-05T00:55:35.036Z,8.49
2023-05-05T00:58:37.784Z,8.47
2023-05-05T01:01:40.768Z,8.46
2023-05-05T01:04:43.826Z,8.47
2023-05-05T01:08:05.250Z,8.35
2023-05-05T01:11:32.751Z,8.40
2023-05-05T01:14:41.074Z,8.34
2023-05-05T01:18:07.429Z,8.29
2023-05-05T01:21:16.023Z,8.33
2023-05-05T01:24:40.788Z,8.43
2023-05-05T01:28:11.258Z,8.53
2023-05-05T01:31:35.478Z,8.65
2023-05-05T01:34:42.413Z,8.56
2023-05-05T01:37:49.458Z,8.43
2023-05-05T01:40:59.178Z,8.13
2023-05-05T01:44:03.826Z,8.24
2023-05-05T01:47:06.834Z,8.30
2023-05-05T01:50:10.727Z,8.23
2023-05-05T01:53:14.214Z,8.18
2023-05-05T01:56:19.636Z,8.18
2023-05-05T01:59:24.152Z,8.23
2023-05-05T02:02:28.721Z,8.25
2023-05-05T02:05:33.249Z,8.26
2023-05-05T02:08:36.836Z,8.33
2023-05-05T02:11:40.169Z,8.27
2023-05-05T02:14:43.628Z,8.23
2023-05-05T02:17:47.160Z,8.27
2023-05-05T02:20:50.091Z,8.26
2023-05-05T02:23:53.267Z,8.23
2023-05-05T02:26:57.460Z,8.32
2023-05-05T02:30:04.941Z,8.41
2023-05-05T02:33:10.735Z,8.39
2023-05-05T02:36:18.305Z,8.38
2023-05-05T02:39:32.684Z,8.49
2023-05-05T02:42:41.671Z,8.41
2023-05-05T02:45:46.700Z,8.45
2023-05-05T02:48:51.164Z,8.55
2023-05-05T02:51:54.379Z,8.58
2023-05-05T02:55:03.956Z,8.62
2023-05-05T02:58:56.782Z,8.60
2023-05-05T03:02:19.118Z,8.63
2023-05-05T03:05:24.202Z,8.66
2023-05-05T03:08:41.481Z,8.59
2023-05-05T03:11:48.233Z,8.47
2023-05-05T03:14:55.301Z,8.39
2023-05-05T03:18:00.390Z,8.38
2023-05-05T03:21:11.599Z,8.44
2023-05-05T03:24:18.952Z,8.44
2023-05-05T03:27:32.662Z,8.64
2023-05-05T03:30:35.651Z,8.67
2023-05-05T03:33:38.769Z,8.60
2023-05-05T03:36:42.111Z,8.50
2023-05-05T03:39:47.954Z,8.58
2023-05-05T03:42:51.023Z,8.72
2023-05-05T03:45:53.877Z,8.71
2023-05-05T03:48:57.462Z,8.88
2023-05-05T03:52:02.011Z,9.00
2023-05-05T03:55:05.667Z,9.10
2023-05-05T03:58:08.394Z,9.11
2023-05-05T04:01:11.309Z,9.14
2023-05-05T04:04:14.078Z,9.13
2023-05-05T04:07:16.886Z,9.26
2023-05-05T04:10:20.090Z,9.45
2023-05-05T04:13:22.857Z,9.67
2023-05-05T04:16:26.470Z,10.92
2023-05-05T04:19:32.618Z,12.20
2023-05-05T04:22:36.653Z,12.85
2023-05-05T04:25:39.497Z,13.58
2023-05-05T04:28:42.601Z,13.96
2023-05-05T04:31:45.763Z,14.94
2023-05-05T04:34:48.705Z,15.60
2023-05-05T04:37:53.811Z,14.73
2023-05-05T04:40:56.886Z,13.05
2023-05-05T04:43:59.690Z,12.34
2023-05-05T04:47:03.263Z,11.99
2023-05-05T04:50:07.899Z,11.85
2023-05-05T04:53:11.559Z,11.84
2023-05-05T04:56:15.151Z,11.78
2023-05-05T04:59:21.046Z,11.82
2023-05-05T05:02:24.185Z,11.83
2023-05-05T05:05:27.251Z,12.04
2023-05-05T05:08:30.123Z,12.31
2023-05-05T05:11:33.015Z,12.59
2023-05-05T05:14:39.938Z,12.69
2023-05-05T05:17:42.726Z,13.05
2023-05-05T05:20:45.520Z,13.22
2023-05-05T05:23:49.456Z,13.48
2023-05-05T05:26:52.450Z,13.87
2023-05-05T05:29:55.555Z,14.14
2023-05-05T05:32:58.393Z,14.35
2023-05-05T05:36:01.162Z,14.69
2023-05-05T05:39:03.937Z,14.24
2023-05-05T05:42:06.762Z,14.16
2023-05-05T05:45:10.268Z,14.09
2023-05-05T05:48:13.687Z,14.34
2023-05-05T05:51:16.887Z,14.61
2023-05-05T05:54:20.030Z,14.76
2023-05-05T05:57:24.917Z,15.19
2023-05-05T06:00:28.125Z,14.70
2023-05-05T06:03:38.055Z,15.07
2023-05-05T06:06:41.436Z,14.75
2023-05-05T06:09:44.132Z,14.78
2023-05-05T06:12:46.829Z,15.20
2023-05-05T06:15:49.761Z,15.62
2023-05-05T06:18:53.533Z,16.00
2023-05-05T06:21:56.590Z,16.23
2023-05-05T06:24:59.386Z,16.21
2023-05-05T06:28:02.506Z,16.47
2023-05-05T06:31:05.341Z,16.85
2023-05-05T06:34:08.084Z,17.50
2023-05-05T06:37:11.307Z,17.30
2023-05-05T06:40:13.970Z,17.12
2023-05-05T06:43:17.661Z,16.89
2023-05-05T06:46:27.615Z,16.74
2023-05-05T06:49:30.480Z,16.68
2023-05-05T06:52:33.242Z,16.77
2023-05-05T06:55:36.057Z,16.88
2023-05-05T06:58:38.956Z,16.80
2023-05-05T07:01:41.752Z,16.87
2023-05-05T07:04:44.627Z,17.08
2023-05-05T07:07:52.911Z,17.25
2023-05-05T07:10:55.881Z,17.30
2023-05-05T07:13:58.980Z,17.87
2023-05-05T07:17:01.777Z,18.12
2023-05-05T07:20:04.769Z,17.90
2023-05-05T07:23:07.978Z,17.73
2023-05-05T07:26:10.837Z,17.88
2023-05-05T07:29:13.805Z,17.80
2023-05-05T07:32:16.735Z,18.12
2023-05-05T07:35:19.607Z,17.54
2023-05-05T07:38:22.412Z,17.71
2023-05-05T07:41:25.069Z,17.94
2023-05-05T07:44:28.373Z,18.08
2023-05-05T07:47:31.581Z,18.28
2023-05-05T07:50:34.214Z,18.43
2023-05-05T07:53:37.387Z,18.60
2023-05-05T07:56:40.302Z,18.33
2023-05-05T07:59:46.037Z,18.46
2023-05-05T08:02:49.202Z,19.22
2023-05-05T08:05:56.324Z,18.89
2023-05-05T08:09:02.946Z,19.00
2023-05-05T08:12:06.161Z,19.82
2023-05-05T08:15:09.484Z,19.77
2023-05-05T08:18:12.836Z,19.96
2023-05-05T08:21:15.611Z,19.97
2023-05-05T08:24:18.738Z,20.63
2023-05-05T08:27:21.381Z,20.52
2023-05-05T08:30:24.538Z,20.68
2023-05-05T08:33:27.454Z,20.98
2023-05-05T08:36:30.258Z,21.33
2023-05-05T08:39:32.907Z,21.24
2023-05-05T08:42:38.487Z,21.37
2023-05-05T08:45:42.783Z,21.54
2023-05-05T08:48:46.303Z,21.40
2023-05-05T08:51:49.232Z,20.82
2023-05-05T08:54:56.604Z,21.39
2023-05-05T08:58:01.568Z,21.17
2023-05-05T09:01:05.069Z,21.86
2023-05-05T09:04:09.274Z,21.92
2023-05-05T09:07:12.308Z,21.23
2023-05-05T09:10:15.146Z,20.71
2023-05-05T09:13:29.913Z,21.28
2023-05-05T09:16:32.546Z,21.00
2023-05-05T09:19:56.727Z,20.94
2023-05-05T09:23:08.391Z,20.76
2023-05-05T09:26:11.253Z,21.60
2023-05-05T09:29:21.276Z,21.30
2023-05-05T09:32:25.446Z,21.82
2023-05-05T09:35:28.359Z,21.71
2023-05-05T09:38:30.991Z,21.88
2023-05-05T09:41:40.786Z,21.83
2023-05-05T09:44:43.432Z,22.17
2023-05-05T09:47:47.270Z,21.19
2023-05-05T09:50:50.280Z,21.49
2023-05-05T09:53:52.994Z,21.66
2023-05-05T09:56:57.222Z,21.67
2023-05-05T10:00:01.504Z,21.47
2023-05-05T10:03:08.489Z,21.90
2023-05-05T10:06:11.143Z,22.68
2023-05-05T10:09:15.288Z,21.73
2023-05-05T10:12:18.348Z,21.57
2023-05-05T10:15:21.644Z,21.79
2023-05-05T10:18:28.754Z,21.39
2023-05-05T10:21:37.125Z,22.44
2023-05-05T10:24:43.759Z,22.73
2023-05-05T10:27:47.062Z,21.44
2023-05-05T10:30:52.246Z,22.35
2023-05-05T10:34:07.116Z,22.41
2023-05-05T10:37:12.461Z,22.05
2023-05-05T10:40:16.981Z,21.81
2023-05-05T10:43:19.880Z,22.01
2023-05-05T10:46:22.769Z,22.62
2023-05-05T10:49:45.228Z,23.54
2023-05-05T10:52:57.116Z,22.29
2023-05-05T10:56:16.851Z,23.02
2023-05-05T10:59:38.377Z,21.78
2023-05-05T11:02:41.837Z,22.51
2023-05-05T11:06:07.962Z,22.86
2023-05-05T11:09:29.526Z,22.41
2023-05-05T11:12:35.528Z,21.96
2023-05-05T11:15:40.165Z,21.83
2023-05-05T11:18:46.053Z,22.22
2023-05-05T11:22:00.555Z,22.75
2023-05-05T11:25:35.924Z,22.55
2023-05-05T11:28:58.308Z,22.32
2023-05-05T11:32:14.718Z,22.04
2023-05-05T11:35:17.729Z,22.87
2023-05-05T11:38:23.842Z,22.49
2023-05-05T11:41:32.682Z,21.97
2023-05-05T11:44:36.224Z,22.05
2023-05-05T11:47:42.298Z,22.88
2023-05-05T11:50:45.524Z,22.87
2023-05-05T11:53:49.296Z,22.78
2023-05-05T11:57:05.405Z,23.18
2023-05-05T12:00:09.409Z,23.19
2023-05-05T12:03:12.844Z,22.84
2023-05-05T12:06:15.713Z,22.13
2023-05-05T12:09:22.827Z,22.42
2023-05-05T12:12:40.437Z,22.65
2023-05-05T12:15:43.496Z,22.48
2023-05-05T12:18:46.240Z,22.30
2023-05-05T12:21:49.107Z,22.51
2023-05-05T12:24:59.380Z,22.42
2023-05-05T12:28:02.218Z,22.39
2023-05-05T12:31:04.939Z,22.27
2023-05-05T12:34:09.659Z,22.31
2023-05-05T12:37:12.657Z,22.42
2023-05-05T12:40:47.547Z,24.03
2023-05-05T12:43:56.871Z,24.75
2023-05-05T12:47:00.199Z,25.04
2023-05-05T12:50:04.120Z,24.83
2023-05-05T12:53:06.845Z,24.73
2023-05-05T12:56:33.442Z,25.09
2023-05-05T12:59:36.854Z,24.62
2023-05-05T13:02:39.715Z,24.74
2023-05-05T13:05:42.560Z,25.13
2023-05-05T13:08:45.357Z,25.29
2023-05-05T13:11:48.095Z,25.57
2023-05-05T13:14:50.880Z,25.76
2023-05-05T13:18:01.731Z,25.65
2023-05-05T13:21:04.718Z,25.70
2023-05-05T13:27:13.087Z,25.95
2023-05-05T13:30:15.863Z,25.82
2023-05-05T13:33:18.627Z,25.96
2023-05-05T13:36:21.405Z,26.50
2023-05-05T13:39:24.305Z,26.28
2023-05-05T13:42:27.054Z,26.51
2023-05-05T13:45:29.766Z,26.66
2023-05-05T13:48:32.739Z,26.61
2023-05-05T13:51:35.598Z,26.56
2023-05-05T13:54:38.723Z,26.14
2023-05-05T13:57:41.402Z,26.58
2023-05-05T14:00:45.058Z,26.46
2023-05-05T14:03:48.074Z,26.75
2023-05-05T14:06:51.070Z,26.68
2023-05-05T14:09:53.885Z,26.78
2023-05-05T14:12:57.142Z,26.36
2023-05-05T14:16:00.208Z,26.53
2023-05-05T14:19:02.918Z,26.75
2023-05-05T14:22:06.139Z,26.53
2023-05-05T14:25:09.365Z,26.46
2023-05-05T14:28:12.148Z,26.56
2023-05-05T14:31:15.187Z,26.27
2023-05-05T14:34:18.147Z,26.25
2023-05-05T14:37:21.153Z,26.22
2023-05-05T14:40:24.076Z,26.14
2023-05-05T14:43:27.251Z,26.24
2023-05-05T14:46:30.316Z,25.97
2023-05-05T14:49:33.202Z,25.96
2023-05-05T14:52:39.706Z,25.82
2023-05-05T14:55:42.435Z,26.12
2023-05-05T14:58:47.308Z,26.14
2023-05-05T15:01:51.531Z,26.09
2023-05-05T15:05:00.056Z,25.29
2023-05-05T15:08:10.252Z,24.57
2023-05-05T15:11:14.194Z,23.96
2023-05-05T15:14:17.069Z,23.57
2023-05-05T15:17:20.182Z,23.38
2023-05-05T15:20:23.221Z,23.11
2023-05-05T15:23:25.961Z,22.87
2023-05-05T15:26:28.902Z,22.68
2023-05-05T15:29:31.741Z,22.68
2023-05-05T15:32:34.893Z,22.62
2023-05-05T15:35:38.014Z,22.49
2023-05-05T15:38:46.526Z,22.63
2023-05-05T15:41:52.322Z,22.52
2023-05-05T15:44:55.033Z,22.31
2023-05-05T15:47:57.753Z,22.30
2023-05-05T15:51:00.388Z,22.55
2023-05-05T15:54:03.071Z,23.03
2023-05-05T15:57:05.904Z,23.35
2023-05-05T16:00:09.794Z,23.46
2023-05-05T16:03:16.399Z,23.72
2023-05-05T16:06:19.138Z,23.66
2023-05-05T16:09:22.188Z,23.79
2023-05-05T16:12:25.545Z,23.93
2023-05-05T16:15:28.413Z,23.82
2023-05-05T16:18:31.194Z,23.78
2023-05-05T16:21:33.922Z,23.82
2023-05-05T16:24:36.910Z,23.82
2023-05-05T16:27:39.735Z,23.66
2023-05-05T16:30:43.589Z,23.64
2023-05-05T16:33:46.766Z,23.42
2023-05-05T16:36:49.800Z,23.29
2023-05-05T16:39:52.764Z,23.01
2023-05-05T16:42:55.449Z,22.97
2023-05-05T16:45:58.392Z,22.68
2023-05-05T16:49:01.255Z,22.41
2023-05-05T16:52:04.138Z,22.44
2023-05-05T16:55:07.597Z,22.34
2023-05-05T16:58:10.573Z,22.30
2023-05-05T17:01:13.579Z,22.03
2023-05-05T17:04:16.354Z,21.80
2023-05-05T17:07:19.117Z,21.69
2023-05-05T17:10:21.936Z,21.41
2023-05-05T17:13:24.741Z,21.30
2023-05-05T17:16:27.426Z,21.14
2023-05-05T17:19:30.289Z,20.69
2023-05-05T17:22:33.218Z,20.60
2023-05-05T17:25:36.298Z,20.52
2023-05-05T17:28:39.063Z,20.15
2023-05-05T17:31:42.448Z,20.03
2023-05-05T17:34:45.208Z,19.77
2023-05-05T17:37:48.124Z,19.69
2023-05-05T17:40:53.777Z,19.65
2023-05-05T17:43:56.711Z,19.46
2023-05-05T17:46:59.875Z,19.25
2023-05-05T17:50:02.742Z,19.16
2023-05-05T17:53:05.505Z,18.95
2023-05-05T17:56:09.041Z,18.79
2023-05-05T17:59:12.096Z,18.61
2023-05-05T18:02:14.826Z,18.58
2023-05-05T18:05:17.675Z,18.38
2023-05-05T18:08:20.555Z,18.34
2023-05-05T18:11:27.833Z,18.19
2023-05-05T18:14:30.750Z,18.00
2023-05-05T18:17:34.152Z,17.93
2023-05-05T18:20:37.045Z,17.84
2023-05-05T18:23:40.643Z,17.65
2023-05-05T18:26:43.759Z,17.56
2023-05-05T18:29:46.676Z,17.39
2023-05-05T18:32:49.688Z,17.19
2023-05-05T18:35:52.682Z,17.11
2023-05-05T18:38:55.717Z,16.94
2023-05-05T18:41:58.771Z,16.83
2023-05-05T18:45:02.030Z,16.74
2023-05-05T18:48:05.437Z,16.60
2023-05-05T18:51:08.744Z,16.46
2023-05-05T18:54:11.757Z,16.36
2023-05-05T18:57:14.580Z,16.36
2023-05-05T19:00:20.384Z,16.20
2023-05-05T19:03:23.696Z,16.10
2023-05-05T19:06:26.492Z,15.97
2023-05-05T19:09:29.466Z,15.81
2023-05-05T19:12:32.809Z,15.77
2023-05-05T19:15:36.275Z,15.67
2023-05-05T19:18:39.391Z,15.72
2023-05-05T19:21:43.621Z,15.53
2023-05-05T19:24:46.635Z,15.49
2023-05-05T19:27:49.674Z,15.41
2023-05-05T19:30:52.781Z,15.30
2023-05-05T19:34:01.553Z,15.22
2023-05-05T19:37:04.546Z,15.30
2023-05-05T19:40:09.109Z,15.28
2023-05-05T19:43:12.202Z,15.28
2023-05-05T19:46:15.127Z,15.11
2023-05-05T19:49:19.623Z,15.18
2023-05-05T19:52:23.002Z,15.26
2023-05-05T19:55:26.092Z,14.97
2023-05-05T19:58:28.886Z,14.87
2023-05-05T20:01:31.963Z,14.86
2023-05-05T20:04:34.825Z,14.81
2023-05-05T20:07:37.505Z,14.72
2023-05-05T20:10:40.578Z,14.64
2023-05-05T20:13:43.594Z,14.57
2023-05-05T20:16:46.303Z,14.47
2023-05-05T20:19:51.237Z,14.54
2023-05-05T20:22:54.230Z,14.52
2023-05-05T20:25:59.484Z,14.42
2023-05-05T20:29:02.252Z,14.37
2023-05-05T20:32:06.199Z,14.32
2023-05-05T20:35:09.660Z,14.31
2023-05-05T20:38:12.414Z,14.31
2023-05-05T20:41:15.890Z,14.27
2023-05-05T20:44:19.627Z,14.13
2023-05-05T20:47:22.639Z,13.95
2023-05-05T20:50:25.623Z,13.91
2023-05-05T20:53:28.502Z,13.88
2023-05-05T20:56:31.296Z,13.81
2023-05-05T20:59:34.007Z,13.78
2023-05-05T21:02:36.928Z,13.78
2023-05-05T21:05:41.373Z,13.64
2023-05-05T21:08:44.203Z,13.70
2023-05-05T21:11:46.982Z,13.54
2023-05-05T21:14:49.818Z,13.48
2023-05-05T21:17:52.615Z,13.34
2023-05-05T21:20:55.484Z,13.38
2023-05-05T21:23:58.292Z,13.36
2023-05-05T21:27:01.314Z,13.32
2023-05-05T21:30:04.250Z,13.33
2023-05-05T21:33:07.060Z,13.17
2023-05-05T21:36:10.076Z,13.17
2023-05-05T21:39:13.042Z,13.19
2023-05-05T21:42:16.458Z,13.16
2023-05-05T21:45:19.353Z,13.20
2023-05-05T21:48:22.164Z,13.11
2023-05-05T21:51:25.330Z,13.21
2023-05-05T21:54:28.027Z,13.24
2023-05-05T21:57:30.982Z,13.13
2023-05-05T22:00:33.834Z,12.95
2023-05-05T22:03:36.847Z,12.95
2023-05-05T22:06:39.691Z,12.99
2023-05-05T22:09:43.455Z,12.96
2023-05-05T22:12:49.398Z,12.90
2023-05-05T22:15:52.388Z,12.89
2023-05-05T22:18:55.272Z,12.90
2023-05-05T22:21:59.154Z,12.78
2023-05-05T22:25:02.677Z,12.86
2023-05-05T22:28:05.614Z,12.78
2023-05-05T22:31:08.605Z,12.68
2023-05-05T22:34:12.160Z,12.65
2023-05-05T22:37:14.914Z,12.68
2023-05-05T22:40:17.934Z,12.60
2023-05-05T22:43:20.856Z,12.58
2023-05-05T22:46:23.819Z,12.56
2023-05-05T22:49:27.951Z,12.53
2023-05-05T22:52:30.945Z,12.64
2023-05-05T22:55:34.390Z,12.70
2023-05-05T22:58:37.101Z,12.53
2023-05-05T23:01:39.975Z,12.53
2023-05-05T23:04:45.182Z,12.49
2023-05-05T23:07:48.171Z,12.39
2023-05-05T23:10:51.172Z,12.39
2023-05-05T23:13:54.562Z,12.47
2023-05-05T23:16:57.358Z,12.34
2023-05-05T23:20:00.131Z,12.35
2023-05-05T23:23:02.841Z,12.33
2023-05-05T23:26:05.589Z,12.45
2023-05-05T23:29:08.431Z,12.52
2023-05-05T23:32:11.210Z,12.32
2023-05-05T23:35:13.994Z,12.21
2023-05-05T23:38:16.769Z,12.13
2023-05-05T23:41:19.781Z,12.10
2023-05-05T23:44:22.781Z,12.05
2023-05-05T23:47:25.515Z,12.11
2023-05-05T23:50:28.300Z,12.16
2023-05-05T23:53:31.208Z,12.19
2023-05-05T23:56:33.900Z,12.17
2023-05-05T23:59:36.614Z,12.07
